Faust — SLKQ — position and weather

sailwx.info

Track history (hours):
 
Tides and Currents Weather Stations Pressure Air Temp Water Temp Dewpoint Dewpoint Depression Visibility Wind Speed Wind Dir Waves Ship Positions

Faust

Last reported at 2014-Jul-30 05:13 UTC. Time now 2014-Jul-31 07:31 UTC.
Position N 49°55' W 003°01'.

Length 227.8 m; beam 32.3 m; draft 9.5 m.

Type: Cargo ship. MMSI: 266260000.

Date/timePositionNaut miles runAvg speedWind from/ knotsBaromVisibWave heightAir tempDewpointWater temp
2014-Jul-30 05:13N 49°55' W 003°01'4220.0
2014-Jul-30 03:08N 50°07' W 001°59'1220.0
2014-Jul-30 02:33N 50°03' W 001°42'2019.5
2014-Jul-30 01:32N 49°52' W 001°16'1818.3
2014-Jul-30 00:34N 49°44' W 000°52'1716.7
2014-Jul-29 23:34N 49°37' W 000°29'1515.0
2014-Jul-29 22:33N 49°31' W 000°07'1110.9
2014-Jul-29 21:33N 49°28' E 000°09'1 1.3
2014-Jul-29 20:33N 49°29' E 000°11'1 1.2
2014-Jul-29 19:32N 49°28' E 000°13'0 0.0
2014-Jul-29 18:32N 49°28' E 000°13'0 0.0
2014-Jul-29 17:32N 49°28' E 000°13'0 0.0
2014-Jul-29 16:32N 49°28' E 000°13'0 0.0
2014-Jul-29 15:32N 49°28' E 000°13'0 0.0
2014-Jul-29 14:32N 49°28' E 000°13'0 0.0
2014-Jul-29 13:32N 49°28' E 000°13'0 0.0
2014-Jul-29 12:32N 49°28' E 000°13'0 0.0
2014-Jul-29 11:32N 49°28' E 000°13'0 0.0
2014-Jul-29 10:32N 49°28' E 000°13'0 0.0
2014-Jul-29 09:32N 49°28' E 000°13'0 0.0
2014-Jul-29 08:32N 49°28' E 000°13'0 0.0
2014-Jul-29 07:32N 49°28' E 000°13'0 0.0
2014-Jul-29 06:32N 49°28' E 000°13'0 0.0
2014-Jul-29 05:32N 49°28' E 000°13'0 0.0
2014-Jul-29 04:33N 49°28' E 000°13'1 1.5
2014-Jul-29 03:33N 49°29' E 000°10'6 6.4
2014-Jul-29 02:33N 49°30' E 000°01'1211.7
2014-Jul-29 01:33N 49°33' W 000°16'1717.3
2014-Jul-29 00:33N 49°49' W 000°28'1918.1
2014-Jul-28 23:32N 50°06' W 000°39'1718.0
2014-Jul-28 22:33N 50°23' W 000°48'1717.0
2014-Jul-28 21:33N 50°39' W 000°57'1313.1
2014-Jul-28 20:33N 50°46' W 001°14'9 9.0
2014-Jul-28 19:33N 50°53' W 001°23'0 0.3
2014-Jul-28 18:33N 50°53' W 001°24'0 0.0
2014-Jul-28 17:32N 50°53' W 001°24'0 0.0
2014-Jul-28 16:32N 50°53' W 001°24'0 0.0
2014-Jul-28 15:32N 50°53' W 001°24'0 0.0
2014-Jul-28 14:32N 50°53' W 001°24'0 0.0
2014-Jul-28 13:31N 50°53' W 001°24'0 0.0
2014-Jul-28 12:32N 50°53' W 001°24'0 0.0
2014-Jul-28 11:32N 50°53' W 001°24'0 0.0
2014-Jul-28 10:31N 50°53' W 001°24'0 0.0
2014-Jul-28 09:32N 50°53' W 001°24'0 0.0
2014-Jul-28 08:28N 50°53' W 001°24'0 0.0
2014-Jul-28 07:32N 50°53' W 001°24'0 0.0
2014-Jul-28 06:32N 50°53' W 001°24'0 0.0
2014-Jul-28 05:32N 50°53' W 001°24'0 0.0
2014-Jul-28 04:32N 50°53' W 001°24'0 0.0
2014-Jul-28 03:31N 50°53' W 001°24'0 0.0
2014-Jul-28 02:32N 50°53' W 001°24'0 0.0
2014-Jul-28 01:32N 50°53' W 001°24'0 0.0
2014-Jul-28 00:32N 50°53' W 001°24'0 0.0
2014-Jul-27 23:32N 50°53' W 001°24'0 0.0
2014-Jul-27 22:32N 50°53' W 001°24'0 0.0
2014-Jul-27 21:32N 50°53' W 001°24'0 0.0
2014-Jul-27 20:31N 50°53' W 001°24'0 0.0
2014-Jul-27 19:32N 50°53' W 001°24'0 0.0
2014-Jul-27 18:31N 50°53' W 001°24'0 0.0
2014-Jul-27 17:32N 50°53' W 001°24'0 0.0
2014-Jul-27 16:32N 50°53' W 001°24'0 0.0
2014-Jul-27 15:31N 50°53' W 001°24'0 0.0
2014-Jul-27 14:31N 50°53' W 001°24'0 0.0
2014-Jul-27 13:29N 50°53' W 001°24'0 0.0
2014-Jul-27 12:32N 50°53' W 001°24'0 0.0
2014-Jul-27 11:32N 50°53' W 001°24'1 0.9
2014-Jul-27 10:33N 50°52' W 001°23'9 8.9
2014-Jul-27 09:34N 50°46' W 001°14'1312.6
2014-Jul-27 08:33N 50°40' W 000°56'9 9.5
2014-Jul-27 07:34N 50°37' W 000°42'1010.3
2014-Jul-27 06:34N 50°35' W 000°26'1110.3
2014-Jul-27 05:32N 50°33' W 000°10'10 9.9
2014-Jul-27 04:33N 50°33' E 000°06'1010.1
2014-Jul-27 03:34N 50°36' E 000°21'1313.0
2014-Jul-27 02:33N 50°41' E 000°40'1313.4
2014-Jul-27 01:33N 50°48' E 000°57'1312.8
2014-Jul-27 00:34N 50°56' E 001°14'1211.6
2014-Jul-26 23:33N 51°04' E 001°27'1111.0
2014-Jul-26 22:34N 51°11' E 001°40'1111.0
2014-Jul-26 21:33N 51°19' E 001°52'1010.1
2014-Jul-26 20:33N 51°24' E 002°06'9 9.5
2014-Jul-26 19:33N 51°21' E 002°20'1110.9
2014-Jul-26 18:33N 51°23' E 002°38'9 8.1
2014-Jul-26 17:28N 51°22' E 002°52'7 8.0
2014-Jul-26 16:33N 51°25' E 003°03'8 7.1
2014-Jul-26 15:28N 51°20' E 003°13'0 0.5
2014-Jul-26 14:33N 51°20' E 003°13'1 0.8
2014-Jul-26 13:33N 51°19' E 003°14'0 0.0
2014-Jul-26 12:33N 51°19' E 003°14'0 0.0
2014-Jul-26 11:33N 51°19' E 003°14'0 0.0
2014-Jul-26 10:30N 51°19' E 003°14'0 0.0
2014-Jul-26 09:30N 51°19' E 003°14'0 0.0
2014-Jul-26 08:33N 51°19' E 003°14'0 0.0
2014-Jul-26 07:33N 51°19' E 003°14'0 0.0
2014-Jul-26 06:33N 51°19' E 003°14'0 0.0
2014-Jul-26 05:33N 51°19' E 003°14'0 0.0
2014-Jul-26 04:33N 51°19' E 003°14'0 0.0
2014-Jul-26 03:33N 51°19' E 003°14'0 0.0
2014-Jul-26 02:33N 51°19' E 003°14'0 0.0
2014-Jul-26 01:33N 51°19' E 003°14'0 0.0
2014-Jul-26 00:33N 51°19' E 003°14'0 0.0
2014-Jul-25 23:33N 51°19' E 003°14'0 0.0
2014-Jul-25 22:33N 51°19' E 003°14'0 0.0
2014-Jul-25 21:27N 51°19' E 003°14'0 0.0
2014-Jul-25 20:33N 51°19' E 003°14'0 0.0
2014-Jul-25 19:33N 51°19' E 003°14'0 0.0
2014-Jul-25 18:33N 51°19' E 003°14'0 0.0
2014-Jul-25 17:33N 51°19' E 003°14'0 0.0
2014-Jul-25 16:33N 51°19' E 003°14'0 0.0
2014-Jul-25 15:33N 51°19' E 003°14'0 0.0
2014-Jul-25 14:33N 51°19' E 003°14'0 0.0
2014-Jul-25 13:33N 51°19' E 003°14'0 0.0
2014-Jul-25 12:33N 51°19' E 003°14'0 0.0
2014-Jul-25 11:33N 51°19' E 003°14'0 0.0
2014-Jul-25 10:33N 51°19' E 003°14'0 0.0
2014-Jul-25 09:33N 51°19' E 003°14'0 0.0
2014-Jul-25 08:33N 51°19' E 003°14'0 0.0
2014-Jul-25 07:33N 51°19' E 003°14'0 0.0
2014-Jul-25 06:33N 51°19' E 003°14'0 0.0
2014-Jul-25 05:33N 51°19' E 003°14'0 0.0
2014-Jul-25 04:34N 51°19' E 003°14'0 0.0
2014-Jul-25 03:34N 51°19' E 003°14'0 0.0
2014-Jul-25 02:34N 51°19' E 003°14'0 0.0
2014-Jul-25 01:34N 51°19' E 003°14'0 0.0
2014-Jul-25 00:34N 51°19' E 003°14'1 1.2
2014-Jul-24 23:34N 51°20' E 003°13'1 1.4
2014-Jul-24 22:34N 51°21' E 003°12'1110.8
2014-Jul-24 21:33N 51°22' E 002°55'9 9.1
2014-Jul-24 20:33N 51°26' E 002°42'3 2.6
2014-Jul-24 19:33N 51°29' E 002°42'6 6.0
2014-Jul-24 18:33N 51°35' E 002°42'1110.9
2014-Jul-24 17:33N 51°45' E 002°42'1313.3
2014-Jul-24 16:33N 51°59' E 002°43'1515.0
2014-Jul-24 15:33N 52°10' E 002°58'1514.8
2014-Jul-24 14:33N 52°22' E 003°13'1514.5
2014-Jul-24 13:33N 52°34' E 003°27'1414.5
2014-Jul-24 12:33N 52°45' E 003°42'1515.3
2014-Jul-24 11:33N 52°57' E 003°58'1616.4
2014-Jul-24 10:33N 53°07' E 004°19'1716.5
2014-Jul-24 09:34N 53°22' E 004°32'1515.3
2014-Jul-24 08:34N 53°31' E 004°53'1615.9
2014-Jul-24 07:33N 53°37' E 005°18'1514.9
2014-Jul-24 06:33N 53°42' E 005°42'1514.6
2014-Jul-24 05:33N 53°47' E 006°05'1514.7
2014-Jul-24 04:34N 53°51' E 006°29'1515.4
2014-Jul-24 03:33N 53°54' E 006°55'1616.4
2014-Jul-24 02:33N 53°57' E 007°22'1413.5
2014-Jul-24 01:33N 53°54' E 007°44'1615.9
2014-Jul-24 00:33N 53°48' E 008°09'1717.3
2014-Jul-23 23:33N 53°36' E 008°30'2 2.1
2014-Jul-23 22:34N 53°35' E 008°33'0 0.0
2014-Jul-23 21:33N 53°35' E 008°33'0 0.0
2014-Jul-23 20:33N 53°35' E 008°33'0 0.0
2014-Jul-23 19:33N 53°35' E 008°33'0 0.0
2014-Jul-23 18:33N 53°35' E 008°33'0 0.0
2014-Jul-23 17:33N 53°35' E 008°33'0 0.0
2014-Jul-23 16:33N 53°35' E 008°33'0 0.0
2014-Jul-23 15:33N 53°35' E 008°33'0 0.0
2014-Jul-23 14:33N 53°35' E 008°33'0 0.0
2014-Jul-23 13:33N 53°35' E 008°33'0 0.0
2014-Jul-23 12:33N 53°35' E 008°33'0 0.0
2014-Jul-23 11:33N 53°35' E 008°33'0 0.5
2014-Jul-23 10:33N 53°34' E 008°33'5 4.8
2014-Jul-23 09:34N 53°38' E 008°27'1515.4
2014-Jul-23 08:33N 53°48' E 008°08'1413.6
2014-Jul-23 07:33N 53°54' E 007°47'1 1.4
2014-Jul-23 06:32N 53°55' E 007°48'0 0.0
2014-Jul-23 05:32N 53°55' E 007°48'0 0.0
2014-Jul-23 04:32N 53°55' E 007°48'0 0.1
2014-Jul-23 03:32N 53°55' E 007°47'0 0.0
2014-Jul-23 02:32N 53°55' E 007°47'0 0.0
2014-Jul-23 01:32N 53°55' E 007°47'0 0.0
2014-Jul-23 00:32N 53°55' E 007°47'0 0.0
2014-Jul-22 23:29N 53°55' E 007°47'0 0.0
2014-Jul-22 22:32N 53°55' E 007°47'0 0.0
2014-Jul-22 21:32N 53°55' E 007°47'0 0.0
2014-Jul-22 20:32N 53°55' E 007°48'0 0.0
2014-Jul-22 19:32N 53°55' E 007°47'0 0.0
2014-Jul-22 18:32N 53°55' E 007°48'0 0.0
2014-Jul-22 17:32N 53°55' E 007°48'0 0.0
2014-Jul-22 16:32N 53°55' E 007°48'0 0.0
2014-Jul-22 15:32N 53°55' E 007°48'0 0.0
2014-Jul-22 14:32N 53°55' E 007°47'0 0.0
2014-Jul-22 13:32N 53°55' E 007°48'0 0.0
2014-Jul-22 12:32N 53°55' E 007°47'0 0.0
2014-Jul-22 11:29N 53°55' E 007°47'0 0.0
2014-Jul-22 10:32N 53°55' E 007°47'0 0.0
2014-Jul-22 09:32N 53°55' E 007°47'0 0.0
2014-Jul-22 08:32N 53°55' E 007°47'0 0.0
2014-Jul-22 07:29N 53°55' E 007°47'0 0.0
2014-Jul-22 06:32N 53°55' E 007°47'0 0.0
2014-Jul-22 05:32N 53°55' E 007°47'0 0.0
2014-Jul-22 04:32N 53°55' E 007°47'0 0.0
2014-Jul-22 03:29N 53°55' E 007°47'0 0.0
2014-Jul-22 02:32N 53°55' E 007°47'0 0.0
2014-Jul-22 01:32N 53°55' E 007°47'0 0.0
2014-Jul-22 00:29N 53°55' E 007°47'0 0.0
2014-Jul-21 23:29N 53°55' E 007°47'0 0.0
2014-Jul-21 22:32N 53°55' E 007°47'0 0.0
2014-Jul-21 21:32N 53°55' E 007°47'0 0.0
2014-Jul-21 20:32N 53°55' E 007°47'0 0.1
2014-Jul-21 20:17N 53°55' E 007°47'0 0.0
2014-Jul-21 19:32N 53°55' E 007°47'0 0.0
2014-Jul-21 18:32N 53°55' E 007°47'0 0.0
2014-Jul-21 17:32N 53°55' E 007°47'0 0.0
2014-Jul-21 16:32N 53°55' E 007°47'0 0.0
2014-Jul-21 15:32N 53°55' E 007°47'2 1.7
2014-Jul-21 14:32N 53°54' E 007°46'2713.4
2014-Jul-21 12:33N 53°50' E 007°01'1413.9
2014-Jul-21 11:32N 53°47' E 006°38'1313.4
2014-Jul-21 10:34N 53°44' E 006°16'1212.5
2014-Jul-21 09:34N 53°40' E 005°56'1312.5
2014-Jul-21 08:33N 53°36' E 005°36'1111.4
2014-Jul-21 07:34N 53°32' E 005°18'10 9.9
2014-Jul-21 06:33N 53°29' E 005°02'1212.3
2014-Jul-21 05:34N 53°24' E 004°43'1312.2
2014-Jul-21 04:30N 53°12' E 004°34'1112.3
2014-Jul-21 03:33N 53°02' E 004°24'1312.6
2014-Jul-21 02:33N 52°51' E 004°15'1212.6
2014-Jul-21 01:33N 52°41' E 004°01'1313.3
2014-Jul-21 00:33N 52°32' E 003°46'1413.7
2014-Jul-20 23:33N 52°23' E 003°30'1514.3
2014-Jul-20 22:28N 52°12' E 003°12'1414.4
2014-Jul-20 21:32N 52°00' E 002°60'1413.8
2014-Jul-20 20:33N 51°48' E 003°09'1212.2
2014-Jul-20 19:33N 51°36' E 003°10'1211.6
2014-Jul-20 18:32N 51°24' E 003°08'1414.2
2014-Jul-20 17:33N 51°25' E 003°30'8 8.2
2014-Jul-20 16:33N 51°23' E 003°43'1111.1
2014-Jul-20 15:33N 51°26' E 003°60'1111.5
2014-Jul-20 14:34N 51°21' E 004°16'5 4.8
2014-Jul-20 13:33N 51°16' E 004°17'1 0.9
2014-Jul-20 12:33N 51°16' E 004°15'1 1.5
2014-Jul-20 11:33N 51°16' E 004°13'0 0.0
2014-Jul-20 10:31N 51°16' E 004°13'0 0.0
2014-Jul-20 09:31N 51°16' E 004°13'0 0.0
2014-Jul-20 08:31N 51°16' E 004°13'0 0.0
2014-Jul-20 07:31N 51°16' E 004°13'0 0.0
2014-Jul-20 06:31N 51°16' E 004°13'0 0.0
2014-Jul-20 05:31N 51°16' E 004°13'  
Track history (hours):
 
Tides and Currents Weather Stations Pressure Air Temp Water Temp Dewpoint Dewpoint Depression Visibility Wind Speed Wind Dir Waves Ship Positions

Faust

Last reported at 2014-Jul-30 05:13 UTC. Time now 2014-Jul-31 07:31 UTC.
Position N 49°55' W 003°01'.

Length 227.8 m; beam 32.3 m; draft 9.5 m.

Type: Cargo ship. MMSI: 266260000.

Date/timePositionNaut miles runAvg speedWind from/ knotsBaromVisibWave heightAir tempDewpointWater temp
2014-Jul-30 05:13N 49°55' W 003°01'4220.0
2014-Jul-30 03:08N 50°07' W 001°59'1220.0
2014-Jul-30 02:33N 50°03' W 001°42'2019.5
2014-Jul-30 01:32N 49°52' W 001°16'1818.3
2014-Jul-30 00:34N 49°44' W 000°52'1716.7
2014-Jul-29 23:34N 49°37' W 000°29'1515.0
2014-Jul-29 22:33N 49°31' W 000°07'1110.9
2014-Jul-29 21:33N 49°28' E 000°09'1 1.3
2014-Jul-29 20:33N 49°29' E 000°11'1 1.2
2014-Jul-29 19:32N 49°28' E 000°13'0 0.0
2014-Jul-29 18:32N 49°28' E 000°13'0 0.0
2014-Jul-29 17:32N 49°28' E 000°13'0 0.0
2014-Jul-29 16:32N 49°28' E 000°13'0 0.0
2014-Jul-29 15:32N 49°28' E 000°13'0 0.0
2014-Jul-29 14:32N 49°28' E 000°13'0 0.0
2014-Jul-29 13:32N 49°28' E 000°13'0 0.0
2014-Jul-29 12:32N 49°28' E 000°13'0 0.0
2014-Jul-29 11:32N 49°28' E 000°13'0 0.0
2014-Jul-29 10:32N 49°28' E 000°13'0 0.0
2014-Jul-29 09:32N 49°28' E 000°13'0 0.0
2014-Jul-29 08:32N 49°28' E 000°13'0 0.0
2014-Jul-29 07:32N 49°28' E 000°13'0 0.0
2014-Jul-29 06:32N 49°28' E 000°13'0 0.0
2014-Jul-29 05:32N 49°28' E 000°13'0 0.0
2014-Jul-29 04:33N 49°28' E 000°13'1 1.5
2014-Jul-29 03:33N 49°29' E 000°10'6 6.4
2014-Jul-29 02:33N 49°30' E 000°01'1211.7
2014-Jul-29 01:33N 49°33' W 000°16'1717.3
2014-Jul-29 00:33N 49°49' W 000°28'1918.1
2014-Jul-28 23:32N 50°06' W 000°39'1718.0
2014-Jul-28 22:33N 50°23' W 000°48'1717.0
2014-Jul-28 21:33N 50°39' W 000°57'1313.1
2014-Jul-28 20:33N 50°46' W 001°14'9 9.0
2014-Jul-28 19:33N 50°53' W 001°23'0 0.3
2014-Jul-28 18:33N 50°53' W 001°24'0 0.0
2014-Jul-28 17:32N 50°53' W 001°24'0 0.0
2014-Jul-28 16:32N 50°53' W 001°24'0 0.0
2014-Jul-28 15:32N 50°53' W 001°24'0 0.0
2014-Jul-28 14:32N 50°53' W 001°24'0 0.0
2014-Jul-28 13:31N 50°53' W 001°24'0 0.0
2014-Jul-28 12:32N 50°53' W 001°24'0 0.0
2014-Jul-28 11:32N 50°53' W 001°24'0 0.0
2014-Jul-28 10:31N 50°53' W 001°24'0 0.0
2014-Jul-28 09:32N 50°53' W 001°24'0 0.0
2014-Jul-28 08:28N 50°53' W 001°24'0 0.0
2014-Jul-28 07:32N 50°53' W 001°24'0 0.0
2014-Jul-28 06:32N 50°53' W 001°24'0 0.0
2014-Jul-28 05:32N 50°53' W 001°24'0 0.0
2014-Jul-28 04:32N 50°53' W 001°24'0 0.0
2014-Jul-28 03:31N 50°53' W 001°24'0 0.0
2014-Jul-28 02:32N 50°53' W 001°24'0 0.0
2014-Jul-28 01:32N 50°53' W 001°24'0 0.0
2014-Jul-28 00:32N 50°53' W 001°24'0 0.0
2014-Jul-27 23:32N 50°53' W 001°24'0 0.0
2014-Jul-27 22:32N 50°53' W 001°24'0 0.0
2014-Jul-27 21:32N 50°53' W 001°24'0 0.0
2014-Jul-27 20:31N 50°53' W 001°24'0 0.0
2014-Jul-27 19:32N 50°53' W 001°24'0 0.0
2014-Jul-27 18:31N 50°53' W 001°24'0 0.0
2014-Jul-27 17:32N 50°53' W 001°24'0 0.0
2014-Jul-27 16:32N 50°53' W 001°24'0 0.0
2014-Jul-27 15:31N 50°53' W 001°24'0 0.0
2014-Jul-27 14:31N 50°53' W 001°24'0 0.0
2014-Jul-27 13:29N 50°53' W 001°24'0 0.0
2014-Jul-27 12:32N 50°53' W 001°24'0 0.0
2014-Jul-27 11:32N 50°53' W 001°24'1 0.9
2014-Jul-27 10:33N 50°52' W 001°23'9 8.9
2014-Jul-27 09:34N 50°46' W 001°14'1312.6
2014-Jul-27 08:33N 50°40' W 000°56'9 9.5
2014-Jul-27 07:34N 50°37' W 000°42'1010.3
2014-Jul-27 06:34N 50°35' W 000°26'1110.3
2014-Jul-27 05:32N 50°33' W 000°10'10 9.9
2014-Jul-27 04:33N 50°33' E 000°06'1010.1
2014-Jul-27 03:34N 50°36' E 000°21'1313.0
2014-Jul-27 02:33N 50°41' E 000°40'1313.4
2014-Jul-27 01:33N 50°48' E 000°57'1312.8
2014-Jul-27 00:34N 50°56' E 001°14'1211.6
2014-Jul-26 23:33N 51°04' E 001°27'1111.0
2014-Jul-26 22:34N 51°11' E 001°40'1111.0
2014-Jul-26 21:33N 51°19' E 001°52'1010.1
2014-Jul-26 20:33N 51°24' E 002°06'9 9.5
2014-Jul-26 19:33N 51°21' E 002°20'1110.9
2014-Jul-26 18:33N 51°23' E 002°38'9 8.1
2014-Jul-26 17:28N 51°22' E 002°52'7 8.0
2014-Jul-26 16:33N 51°25' E 003°03'8 7.1
2014-Jul-26 15:28N 51°20' E 003°13'0 0.5
2014-Jul-26 14:33N 51°20' E 003°13'1 0.8
2014-Jul-26 13:33N 51°19' E 003°14'0 0.0
2014-Jul-26 12:33N 51°19' E 003°14'0 0.0
2014-Jul-26 11:33N 51°19' E 003°14'0 0.0
2014-Jul-26 10:30N 51°19' E 003°14'0 0.0
2014-Jul-26 09:30N 51°19' E 003°14'0 0.0
2014-Jul-26 08:33N 51°19' E 003°14'0 0.0
2014-Jul-26 07:33N 51°19' E 003°14'0 0.0
2014-Jul-26 06:33N 51°19' E 003°14'0 0.0
2014-Jul-26 05:33N 51°19' E 003°14'0 0.0
2014-Jul-26 04:33N 51°19' E 003°14'0 0.0
2014-Jul-26 03:33N 51°19' E 003°14'0 0.0
2014-Jul-26 02:33N 51°19' E 003°14'0 0.0
2014-Jul-26 01:33N 51°19' E 003°14'0 0.0
2014-Jul-26 00:33N 51°19' E 003°14'0 0.0
2014-Jul-25 23:33N 51°19' E 003°14'0 0.0
2014-Jul-25 22:33N 51°19' E 003°14'0 0.0
2014-Jul-25 21:27N 51°19' E 003°14'0 0.0
2014-Jul-25 20:33N 51°19' E 003°14'0 0.0
2014-Jul-25 19:33N 51°19' E 003°14'0 0.0
2014-Jul-25 18:33N 51°19' E 003°14'0 0.0
2014-Jul-25 17:33N 51°19' E 003°14'0 0.0
2014-Jul-25 16:33N 51°19' E 003°14'0 0.0
2014-Jul-25 15:33N 51°19' E 003°14'0 0.0
2014-Jul-25 14:33N 51°19' E 003°14'0 0.0
2014-Jul-25 13:33N 51°19' E 003°14'0 0.0
2014-Jul-25 12:33N 51°19' E 003°14'0 0.0
2014-Jul-25 11:33N 51°19' E 003°14'0 0.0
2014-Jul-25 10:33N 51°19' E 003°14'0 0.0
2014-Jul-25 09:33N 51°19' E 003°14'0 0.0
2014-Jul-25 08:33N 51°19' E 003°14'0 0.0
2014-Jul-25 07:33N 51°19' E 003°14'0 0.0
2014-Jul-25 06:33N 51°19' E 003°14'0 0.0
2014-Jul-25 05:33N 51°19' E 003°14'0 0.0
2014-Jul-25 04:34N 51°19' E 003°14'0 0.0
2014-Jul-25 03:34N 51°19' E 003°14'0 0.0
2014-Jul-25 02:34N 51°19' E 003°14'0 0.0
2014-Jul-25 01:34N 51°19' E 003°14'0 0.0
2014-Jul-25 00:34N 51°19' E 003°14'1 1.2
2014-Jul-24 23:34N 51°20' E 003°13'1 1.4
2014-Jul-24 22:34N 51°21' E 003°12'1110.8
2014-Jul-24 21:33N 51°22' E 002°55'9 9.1
2014-Jul-24 20:33N 51°26' E 002°42'3 2.6
2014-Jul-24 19:33N 51°29' E 002°42'6 6.0
2014-Jul-24 18:33N 51°35' E 002°42'1110.9
2014-Jul-24 17:33N 51°45' E 002°42'1313.3
2014-Jul-24 16:33N 51°59' E 002°43'1515.0
2014-Jul-24 15:33N 52°10' E 002°58'1514.8
2014-Jul-24 14:33N 52°22' E 003°13'1514.5
2014-Jul-24 13:33N 52°34' E 003°27'1414.5
2014-Jul-24 12:33N 52°45' E 003°42'1515.3
2014-Jul-24 11:33N 52°57' E 003°58'1616.4
2014-Jul-24 10:33N 53°07' E 004°19'1716.5
2014-Jul-24 09:34N 53°22' E 004°32'1515.3
2014-Jul-24 08:34N 53°31' E 004°53'1615.9
2014-Jul-24 07:33N 53°37' E 005°18'1514.9
2014-Jul-24 06:33N 53°42' E 005°42'1514.6
2014-Jul-24 05:33N 53°47' E 006°05'1514.7
2014-Jul-24 04:34N 53°51' E 006°29'1515.4
2014-Jul-24 03:33N 53°54' E 006°55'1616.4
2014-Jul-24 02:33N 53°57' E 007°22'1413.5
2014-Jul-24 01:33N 53°54' E 007°44'1615.9
2014-Jul-24 00:33N 53°48' E 008°09'1717.3
2014-Jul-23 23:33N 53°36' E 008°30'2 2.1
2014-Jul-23 22:34N 53°35' E 008°33'0 0.0
2014-Jul-23 21:33N 53°35' E 008°33'0 0.0
2014-Jul-23 20:33N 53°35' E 008°33'0 0.0
2014-Jul-23 19:33N 53°35' E 008°33'0 0.0
2014-Jul-23 18:33N 53°35' E 008°33'0 0.0
2014-Jul-23 17:33N 53°35' E 008°33'0 0.0
2014-Jul-23 16:33N 53°35' E 008°33'0 0.0
2014-Jul-23 15:33N 53°35' E 008°33'0 0.0
2014-Jul-23 14:33N 53°35' E 008°33'0 0.0
2014-Jul-23 13:33N 53°35' E 008°33'0 0.0
2014-Jul-23 12:33N 53°35' E 008°33'0 0.0
2014-Jul-23 11:33N 53°35' E 008°33'0 0.5
2014-Jul-23 10:33N 53°34' E 008°33'5 4.8
2014-Jul-23 09:34N 53°38' E 008°27'1515.4
2014-Jul-23 08:33N 53°48' E 008°08'1413.6
2014-Jul-23 07:33N 53°54' E 007°47'1 1.4
2014-Jul-23 06:32N 53°55' E 007°48'0 0.0
2014-Jul-23 05:32N 53°55' E 007°48'0 0.0
2014-Jul-23 04:32N 53°55' E 007°48'0 0.1
2014-Jul-23 03:32N 53°55' E 007°47'0 0.0
2014-Jul-23 02:32N 53°55' E 007°47'0 0.0
2014-Jul-23 01:32N 53°55' E 007°47'0 0.0
2014-Jul-23 00:32N 53°55' E 007°47'0 0.0
2014-Jul-22 23:29N 53°55' E 007°47'0 0.0
2014-Jul-22 22:32N 53°55' E 007°47'0 0.0
2014-Jul-22 21:32N 53°55' E 007°47'0 0.0
2014-Jul-22 20:32N 53°55' E 007°48'0 0.0
2014-Jul-22 19:32N 53°55' E 007°47'0 0.0
2014-Jul-22 18:32N 53°55' E 007°48'0 0.0
2014-Jul-22 17:32N 53°55' E 007°48'0 0.0
2014-Jul-22 16:32N 53°55' E 007°48'0 0.0
2014-Jul-22 15:32N 53°55' E 007°48'0 0.0
2014-Jul-22 14:32N 53°55' E 007°47'0 0.0
2014-Jul-22 13:32N 53°55' E 007°48'0 0.0
2014-Jul-22 12:32N 53°55' E 007°47'0 0.0
2014-Jul-22 11:29N 53°55' E 007°47'0 0.0
2014-Jul-22 10:32N 53°55' E 007°47'0 0.0
2014-Jul-22 09:32N 53°55' E 007°47'0 0.0
2014-Jul-22 08:32N 53°55' E 007°47'0 0.0
2014-Jul-22 07:29N 53°55' E 007°47'0 0.0
2014-Jul-22 06:32N 53°55' E 007°47'0 0.0
2014-Jul-22 05:32N 53°55' E 007°47'0 0.0
2014-Jul-22 04:32N 53°55' E 007°47'0 0.0
2014-Jul-22 03:29N 53°55' E 007°47'0 0.0
2014-Jul-22 02:32N 53°55' E 007°47'0 0.0
2014-Jul-22 01:32N 53°55' E 007°47'0 0.0
2014-Jul-22 00:29N 53°55' E 007°47'0 0.0
2014-Jul-21 23:29N 53°55' E 007°47'0 0.0
2014-Jul-21 22:32N 53°55' E 007°47'0 0.0
2014-Jul-21 21:32N 53°55' E 007°47'0 0.0
2014-Jul-21 20:32N 53°55' E 007°47'0 0.1
2014-Jul-21 20:17N 53°55' E 007°47'0 0.0
2014-Jul-21 19:32N 53°55' E 007°47'0 0.0
2014-Jul-21 18:32N 53°55' E 007°47'0 0.0
2014-Jul-21 17:32N 53°55' E 007°47'0 0.0
2014-Jul-21 16:32N 53°55' E 007°47'0 0.0
2014-Jul-21 15:32N 53°55' E 007°47'2 1.7
2014-Jul-21 14:32N 53°54' E 007°46'2713.4
2014-Jul-21 12:33N 53°50' E 007°01'1413.9
2014-Jul-21 11:32N 53°47' E 006°38'1313.4
2014-Jul-21 10:34N 53°44' E 006°16'1212.5
2014-Jul-21 09:34N 53°40' E 005°56'1312.5
2014-Jul-21 08:33N 53°36' E 005°36'1111.4
2014-Jul-21 07:34N 53°32' E 005°18'10 9.9
2014-Jul-21 06:33N 53°29' E 005°02'1212.3
2014-Jul-21 05:34N 53°24' E 004°43'1312.2
2014-Jul-21 04:30N 53°12' E 004°34'1112.3
2014-Jul-21 03:33N 53°02' E 004°24'1312.6
2014-Jul-21 02:33N 52°51' E 004°15'1212.6
2014-Jul-21 01:33N 52°41' E 004°01'1313.3
2014-Jul-21 00:33N 52°32' E 003°46'1413.7
2014-Jul-20 23:33N 52°23' E 003°30'1514.3
2014-Jul-20 22:28N 52°12' E 003°12'1414.4
2014-Jul-20 21:32N 52°00' E 002°60'1413.8
2014-Jul-20 20:33N 51°48' E 003°09'1212.2
2014-Jul-20 19:33N 51°36' E 003°10'1211.6
2014-Jul-20 18:32N 51°24' E 003°08'1414.2
2014-Jul-20 17:33N 51°25' E 003°30'8 8.2
2014-Jul-20 16:33N 51°23' E 003°43'1111.1
2014-Jul-20 15:33N 51°26' E 003°60'1111.5
2014-Jul-20 14:34N 51°21' E 004°16'5 4.8
2014-Jul-20 13:33N 51°16' E 004°17'1 0.9
2014-Jul-20 12:33N 51°16' E 004°15'1 1.5
2014-Jul-20 11:33N 51°16' E 004°13'0 0.0
2014-Jul-20 10:31N 51°16' E 004°13'0 0.0
2014-Jul-20 09:31N 51°16' E 004°13'0 0.0
2014-Jul-20 08:31N 51°16' E 004°13'0 0.0
2014-Jul-20 07:31N 51°16' E 004°13'0 0.0
2014-Jul-20 06:31N 51°16' E 004°13'0 0.0
2014-Jul-20 05:31N 51°16' E 004°13'  

Dump ship's entire track history